Nouasseur, Morocco
Current Conditions -  °F | °C
As of 11:00 PM on Saturday 25 Oct 2014 (Local Time) from GMMN Reporting Station
Clear Clear  
Wind Chill: 64°   Ceiling: Unl
Heat Index: 64°   Visibility: 6mi
Dew Point: 61°   Wind: 1mph
Humidity: 88%   Direction: NA
Pressure: 30.12"   Gusts: NA
Location:  33.37°N, 7.58°W
Report Text: GMMN 252200Z VRB01KT 9999 NSC 18/16 Q1020 NOSIG
Loading
Personal Weather Stations






























Interactive Weather Map
Tropical Storm Tracking
New forecast layout! Learn more

10-Day Weather Forecast

Advertisements
Track Severe Weather on mobile